Time;durP1;ratioP1;P1;durP2;ratioP2;P2;SDS_P1;SDS_P2;PMS_P1;PMS_P2;Temp;Humidity;BMP_temperature;BMP_pressure;BME280_temperature;BME280_humidity;BME280_pressure;Samples;Min_cycle;Max_cycle;Signal;HPM_P1;HPM_P2
2023/04/18 00:00:16;;;;;;;10.82;8.00;;;;;;;-146.25;71.55;52281.00;2095669;28;37037;-66
2023/04/18 00:01:20;;;;;;;11.90;8.68;;;;;;;-146.25;72.13;52246.53;2096241;28;32390;-67
2023/04/18 00:02:21;;;;;;;13.00;8.85;;;;;;;-146.25;72.24;52262.75;2096079;28;35031;-69
2023/04/18 00:03:24;;;;;;;11.52;8.32;;;;;;;-146.25;72.23;52258.72;2095470;28;38982;-68
2023/04/18 00:04:26;;;;;;;12.85;8.98;;;;;;;-146.25;72.08;52242.50;2096370;28;32294;-66
2023/04/18 00:05:28;;;;;;;12.55;9.23;;;;;;;-146.25;72.15;52281.00;2096178;28;37039;-66
2023/04/18 00:06:31;;;;;;;11.52;8.43;;;;;;;-146.25;72.31;52295.19;2095988;28;33769;-68
2023/04/18 00:07:34;;;;;;;14.43;9.30;;;;;;;-146.25;72.76;52299.25;2096296;28;35635;-66
2023/04/18 00:08:38;;;;;;;13.07;8.90;;;;;;;-146.25;72.55;52272.91;2097125;28;20045;-68
2023/04/18 00:09:41;;;;;;;14.05;8.73;;;;;;;-146.25;72.35;52246.53;2096241;28;37192;-69
2023/04/18 00:10:42;;;;;;;12.52;8.93;;;;;;;-146.25;72.52;52291.16;2096215;28;37262;-66
2023/04/18 00:11:44;;;;;;;14.25;9.35;;;;;;;-146.25;73.25;52254.66;2096221;28;36238;-69
2023/04/18 00:12:46;;;;;;;12.60;9.10;;;;;;;-146.25;72.78;52266.81;2095284;28;33360;-66
2023/04/18 00:13:50;;;;;;;13.65;9.43;;;;;;;-146.25;72.97;52272.91;2095630;28;36281;-69
2023/04/18 00:14:52;;;;;;;12.38;8.98;;;;;;;-146.25;73.19;52331.69;2096246;28;35959;-67
2023/04/18 00:15:54;;;;;;;13.15;9.10;;;;;;;-146.25;73.44;52272.91;2095554;28;32542;-67
2023/04/18 00:16:56;;;;;;;13.90;9.65;;;;;;;-146.25;73.91;52254.66;2095321;28;37311;-67
2023/04/18 00:17:59;;;;;;;12.15;8.63;;;;;;;-146.25;73.96;52264.78;2096174;28;20041;-67
2023/04/18 00:19:05;;;;;;;14.70;9.90;;;;;;;-146.25;74.10;52250.59;2095321;28;36477;-67
2023/04/18 00:20:11;;;;;;;15.82;9.93;;;;;;;-146.25;74.73;52262.75;2096463;28;35792;-65
2023/04/18 00:21:13;;;;;;;14.15;8.90;;;;;;;-146.25;74.80;52254.66;2096583;28;27356;-67
2023/04/18 00:22:16;;;;;;;17.08;10.35;;;;;;;-146.25;74.60;52254.66;2095949;28;37819;-67
2023/04/18 00:23:20;;;;;;;15.85;9.60;;;;;;;-146.25;74.53;52274.94;2096538;28;20038;-67
2023/04/18 00:24:22;;;;;;;14.23;9.23;;;;;;;-146.25;75.14;52242.50;2096015;28;35833;-67
2023/04/18 00:25:25;;;;;;;16.50;9.93;;;;;;;-146.25;75.45;52285.06;2097952;28;34383;-67
2023/04/18 00:26:29;;;;;;;14.43;9.90;;;;;;;-146.25;75.18;52258.72;2096476;28;34416;-67
2023/04/18 00:27:31;;;;;;;13.50;9.85;;;;;;;-146.25;75.18;52244.50;2096344;28;20037;-67
2023/04/18 00:28:33;;;;;;;16.88;10.38;;;;;;;-146.25;75.23;52283.03;2096379;28;33670;-67
2023/04/18 00:29:35;;;;;;;15.80;9.90;;;;;;;-146.25;75.95;52276.97;2096272;28;26985;-65
2023/04/18 00:30:39;;;;;;;15.82;10.23;;;;;;;-146.25;75.99;52293.19;2096318;28;34667;-67
2023/04/18 00:31:41;;;;;;;15.63;10.00;;;;;;;-146.25;76.04;52262.75;2096589;28;20102;-67
2023/04/18 00:32:42;;;;;;;13.25;9.30;;;;;;;-146.25;75.97;52278.97;2103823;28;26590;-66
2023/04/18 00:33:46;;;;;;;15.75;9.80;;;;;;;-146.25;76.34;52242.50;2095400;28;26261;-67
2023/04/18 00:34:49;;;;;;;12.18;9.25;;;;;;;-146.25;76.08;52258.72;2096322;28;20822;-67
2023/04/18 00:35:53;;;;;;;14.05;10.15;;;;;;;-146.25;75.94;52256.69;2104461;28;20041;-67
2023/04/18 00:36:57;;;;;;;16.65;10.63;;;;;;;-146.25;76.14;52258.72;2095818;28;34677;-67
2023/04/18 00:37:58;;;;;;;14.43;9.88;;;;;;;-146.25;76.52;52270.88;2095639;28;29216;-67
2023/04/18 00:39:00;;;;;;;13.82;9.55;;;;;;;-146.25;77.18;52291.16;2096246;28;31912;-67
2023/04/18 00:40:04;;;;;;;17.85;9.98;;;;;;;-146.25;77.31;52232.34;2095950;28;20033;-67
2023/04/18 00:41:06;;;;;;;15.75;9.88;;;;;;;-146.25;77.06;52309.41;2095798;28;27194;-67
2023/04/18 00:42:08;;;;;;;13.95;9.52;;;;;;;-146.25;77.15;52287.09;2104358;28;20041;-66
2023/04/18 00:43:14;;;;;;;15.75;10.48;;;;;;;-146.25;77.17;52230.31;2103703;28;29478;-67
2023/04/18 00:44:16;;;;;;;13.88;9.82;;;;;;;-146.25;77.25;52283.03;2095683;28;20052;-67
2023/04/18 00:45:18;;;;;;;16.02;10.38;;;;;;;-146.25;78.19;52281.00;2096345;28;20049;-66
2023/04/18 00:46:20;;;;;;;16.65;10.43;;;;;;;-146.25;78.04;52266.81;2095908;28;29628;-67
2023/04/18 00:47:21;;;;;;;15.43;10.40;;;;;;;-146.25;77.88;52272.91;2095776;28;24720;-67
2023/04/18 00:48:23;;;;;;;15.35;10.25;;;;;;;-146.25;78.43;52252.63;2087689;28;20046;-67
2023/04/18 00:49:27;;;;;;;15.60;10.25;;;;;;;-146.25;78.21;52285.06;2088114;28;20041;-67
2023/04/18 00:50:30;;;;;;;17.77;10.73;;;;;;;-146.25;78.82;52230.31;2086975;28;28794;-67
2023/04/18 00:51:34;;;;;;;13.40;10.10;;;;;;;-146.25;78.49;52295.19;2087923;28;20167;-67
2023/04/18 00:52:36;;;;;;;14.73;9.32;;;;;;;-146.25;78.76;52285.06;2095221;28;31481;-67
2023/04/18 00:53:42;;;;;;;12.48;9.73;;;;;;;-146.25;78.60;52272.91;2096538;28;29628;-67
2023/04/18 00:54:46;;;;;;;14.00;10.30;;;;;;;-146.25;78.67;52287.09;2096060;28;20776;-66
2023/04/18 00:55:51;;;;;;;12.98;10.30;;;;;;;-146.25;78.67;52260.72;2087700;28;24055;-66
2023/04/18 00:56:54;;;;;;;16.15;10.85;;;;;;;-146.25;78.90;52289.13;2082105;28;20962;-66
2023/04/18 00:57:55;;;;;;;14.75;10.05;;;;;;;-146.25;79.26;52301.28;2080647;28;20045;-66
2023/04/18 00:58:58;;;;;;;17.83;10.50;;;;;;;-146.25;78.76;52285.06;2089365;28;20871;-67
2023/04/18 01:00:03;;;;;;;14.95;10.48;;;;;;;-146.25;79.52;52246.53;2097744;28;29479;-66
2023/04/18 01:01:06;;;;;;;17.90;10.75;;;;;;;-146.25;79.63;52276.97;2097611;28;26516;-67
2023/04/18 01:02:08;;;;;;;13.70;10.18;;;;;;;-146.25;78.96;52281.00;2088658;28;26581;-67
2023/04/18 01:03:12;;;;;;;14.20;10.15;;;;;;;-146.25;79.44;52246.53;2088645;28;22056;-66
2023/04/18 01:04:15;;;;;;;14.27;9.77;;;;;;;-146.25;79.07;52258.72;2096941;28;30414;-67
2023/04/18 01:05:17;;;;;;;15.07;10.63;;;;;;;-146.25;79.61;52240.47;2088633;28;29957;-67
2023/04/18 01:06:19;;;;;;;14.52;10.30;;;;;;;-146.25;79.44;52272.91;2089159;28;20180;-67
2023/04/18 01:07:25;;;;;;;15.63;10.23;;;;;;;-146.25;79.16;52283.03;2096722;28;33396;-66
2023/04/18 01:08:30;;;;;;;13.95;9.90;;;;;;;-146.25;79.37;52278.97;2097126;28;20861;-67
2023/04/18 01:09:32;;;;;;;12.25;9.88;;;;;;;-146.25;79.60;52283.03;2097306;28;20044;-67
2023/04/18 01:10:35;;;;;;;15.40;9.70;;;;;;;-146.25;79.32;52297.22;2097367;28;20802;-67
2023/04/18 01:11:39;;;;;;;15.93;10.40;;;;;;;-146.25;79.77;52264.78;2088949;28;20140;-67
2023/04/18 01:12:40;;;;;;;16.08;9.75;;;;;;;-146.25;79.26;52285.06;2096994;28;25061;-67
2023/04/18 01:13:42;;;;;;;13.50;9.43;;;;;;;-146.25;79.29;52303.31;2098052;28;30971;-67
2023/04/18 01:14:44;;;;;;;15.35;10.35;;;;;;;-146.25;79.65;52283.03;2097311;28;22054;-66
2023/04/18 01:15:48;;;;;;;14.00;10.13;;;;;;;-146.25;79.56;52281.00;2096428;28;32416;-67
2023/04/18 01:16:50;;;;;;;14.63;10.13;;;;;;;-146.25;79.66;52254.66;2097847;28;22916;-66
2023/04/18 01:17:52;;;;;;;12.98;9.73;;;;;;;-146.25;79.96;52266.81;2105199;28;20790;-66
2023/04/18 01:18:57;;;;;;;12.88;9.30;;;;;;;-146.25;79.54;52303.31;2097540;28;20041;-66
2023/04/18 01:20:00;;;;;;;14.25;9.75;;;;;;;-146.25;79.65;52260.72;2096909;28;20764;-66
2023/04/18 01:21:04;;;;;;;15.15;9.77;;;;;;;-146.25;80.19;52305.34;2097044;28;32357;-66
2023/04/18 01:22:07;;;;;;;15.93;10.05;;;;;;;-146.25;80.17;52281.00;2096156;28;34069;-66
2023/04/18 01:23:09;;;;;;;14.38;9.63;;;;;;;-146.25;80.29;52264.78;2096980;28;28956;-67
2023/04/18 01:24:16;;;;;;;14.50;9.45;;;;;;;-146.25;80.34;52307.38;2097668;28;20107;-66
2023/04/18 01:25:17;;;;;;;15.32;9.80;;;;;;;-146.25;79.78;52287.09;2097619;28;29432;-66
2023/04/18 01:26:19;;;;;;;12.70;9.55;;;;;;;-146.25;80.70;52250.59;2096394;28;34119;-65
2023/04/18 01:27:21;;;;;;;13.63;10.52;;;;;;;-146.25;80.58;52297.22;2097040;28;31166;-66
2023/04/18 01:28:23;;;;;;;13.60;9.38;;;;;;;-146.25;80.81;52295.19;2088647;28;20776;-65
2023/04/18 01:29:25;;;;;;;14.30;9.60;;;;;;;-146.25;80.97;52289.13;2089091;28;23122;-66
2023/04/18 01:30:27;;;;;;;18.25;9.75;;;;;;;-146.25;80.71;52264.78;2096784;28;26591;-66
2023/04/18 01:31:29;;;;;;;12.90;9.98;;;;;;;-146.25;81.20;52307.38;2097385;28;32594;-67
2023/04/18 01:32:30;;;;;;;14.05;10.32;;;;;;;-146.25;80.98;52274.94;2097639;28;20044;-66
2023/04/18 01:33:32;;;;;;;13.38;9.50;;;;;;;-146.25;80.99;52311.44;2097491;28;24771;-67
2023/04/18 01:34:39;;;;;;;13.32;9.57;;;;;;;-146.25;81.25;52258.72;2096534;28;27096;-66
2023/04/18 01:35:40;;;;;;;13.73;9.73;;;;;;;-146.25;81.50;52232.34;2097062;28;20056;-67
2023/04/18 01:36:43;;;;;;;20.25;10.18;;;;;;;-146.25;81.27;52301.28;2097299;28;20123;-67
2023/04/18 01:37:45;;;;;;;15.73;9.93;;;;;;;-146.25;81.78;52291.16;2097663;28;20049;-66
2023/04/18 01:38:47;;;;;;;16.55;10.55;;;;;;;-146.25;81.47;52313.44;2097089;28;25661;-67
2023/04/18 01:39:48;;;;;;;15.88;10.15;;;;;;;-146.25;81.71;52289.13;2097574;28;32409;-66
2023/04/18 01:40:52;;;;;;;13.52;9.77;;;;;;;-146.25;81.85;52297.22;2097693;28;20553;-67
2023/04/18 01:41:55;;;;;;;14.45;10.40;;;;;;;-146.25;82.30;52262.75;2096735;28;20029;-67
2023/04/18 01:42:57;;;;;;;15.82;10.75;;;;;;;-146.25;81.86;52307.38;2096188;28;34245;-66
2023/04/18 01:43:59;;;;;;;16.42;10.50;;;;;;;-146.25;82.11;52250.59;2105457;28;21080;-67
2023/04/18 01:45:01;;;;;;;14.68;10.50;;;;;;;-146.25;82.56;52297.22;2104542;28;29039;-67
2023/04/18 01:46:03;;;;;;;15.27;10.70;;;;;;;-146.25;82.21;52274.94;2105752;28;20052;-66
2023/04/18 01:47:05;;;;;;;14.52;10.55;;;;;;;-146.25;82.99;52287.09;2096205;28;34943;-67
2023/04/18 01:48:06;;;;;;;14.18;9.85;;;;;;;-146.25;82.83;52289.13;2097070;28;20131;-67
2023/04/18 01:49:08;;;;;;;17.48;11.10;;;;;;;-146.25;83.34;52270.88;2097805;28;20040;-66
2023/04/18 01:50:11;;;;;;;17.13;10.60;;;;;;;-146.25;83.38;52262.75;2097699;28;26547;-67
2023/04/18 01:51:12;;;;;;;19.67;11.50;;;;;;;-146.25;83.08;52303.31;2097730;28;20048;-67
2023/04/18 01:52:14;;;;;;;15.73;11.52;;;;;;;-146.25;83.24;52274.94;2097110;28;20201;-66
2023/04/18 01:53:16;;;;;;;17.27;11.68;;;;;;;-146.25;83.80;52270.88;2096674;28;20878;-67
2023/04/18 01:54:18;;;;;;;16.17;11.20;;;;;;;-146.25;83.80;52291.16;2096757;28;20037;-67
2023/04/18 01:55:20;;;;;;;17.85;11.00;;;;;;;-146.25;84.15;52289.13;2096975;28;25870;-67
2023/04/18 01:56:22;;;;;;;16.83;11.23;;;;;;;-146.25;84.04;52287.09;2097083;28;21250;-67
2023/04/18 01:57:23;;;;;;;16.50;10.95;;;;;;;-146.25;83.78;52260.72;2088436;28;21031;-67
2023/04/18 01:58:26;;;;;;;18.55;11.30;;;;;;;-146.25;83.75;52297.22;2088850;28;20072;-67
2023/04/18 01:59:27;;;;;;;16.88;10.57;;;;;;;-146.25;84.28;52278.97;2088510;28;20042;-66
2023/04/18 02:00:29;;;;;;;17.95;12.05;;;;;;;-146.25;84.27;52317.50;2088015;28;20893;-67
2023/04/18 02:01:31;;;;;;;19.95;11.65;;;;;;;-146.25;85.15;52295.19;2095825;28;42989;-67
2023/04/18 02:02:33;;;;;;;16.10;11.65;;;;;;;-146.25;84.67;52291.16;2105375;28;20032;-67
2023/04/18 02:03:34;;;;;;;17.35;11.55;;;;;;;-146.25;84.79;52262.75;2104258;28;34366;-67
2023/04/18 02:04:36;;;;;;;17.45;10.90;;;;;;;-146.25;84.60;52238.44;2096958;28;20045;-66
2023/04/18 02:05:38;;;;;;;16.17;11.50;;;;;;;-146.25;85.02;52258.72;2097042;28;20033;-67
2023/04/18 02:06:42;;;;;;;18.58;12.52;;;;;;;-146.25;85.67;52285.06;2096852;28;20045;-66
2023/04/18 02:07:44;;;;;;;16.48;12.07;;;;;;;-146.25;85.49;52287.09;2096473;28;21347;-67
2023/04/18 02:08:46;;;;;;;20.30;11.98;;;;;;;-146.25;85.43;52274.94;2096889;28;20041;-67
2023/04/18 02:09:47;;;;;;;17.08;11.65;;;;;;;-146.25;85.52;52258.72;2096505;28;24403;-67
2023/04/18 02:10:49;;;;;;;17.25;11.55;;;;;;;-146.25;85.55;52262.75;2097189;28;21788;-66
2023/04/18 02:11:51;;;;;;;15.50;11.35;;;;;;;-146.25;85.58;52276.97;2096796;28;33755;-66
2023/04/18 02:12:53;;;;;;;20.13;12.15;;;;;;;-146.25;86.05;52303.31;2097073;28;20045;-67
2023/04/18 02:13:54;;;;;;;18.00;11.95;;;;;;;-146.25;86.04;52287.09;2088365;28;20042;-67
2023/04/18 02:14:56;;;;;;;19.25;12.73;;;;;;;-146.25;85.47;52258.72;2096871;28;31046;-67
2023/04/18 02:15:58;;;;;;;19.50;11.65;;;;;;;-146.25;86.09;52281.00;2097369;28;23256;-67
2023/04/18 02:17:02;;;;;;;19.20;12.68;;;;;;;-146.25;85.81;52242.50;2105049;28;22455;-67
2023/04/18 02:18:05;;;;;;;18.50;12.02;;;;;;;-146.25;86.56;52283.03;2088520;28;20047;-67
2023/04/18 02:19:07;;;;;;;16.10;11.77;;;;;;;-146.25;86.13;52274.94;2081452;28;20776;-66
2023/04/18 02:20:09;;;;;;;18.05;11.88;;;;;;;-146.25;86.07;52323.59;2088230;28;20049;-67
2023/04/18 02:21:14;;;;;;;19.35;12.65;;;;;;;-146.25;86.59;52285.06;2096478;28;25574;-67
2023/04/18 02:22:16;;;;;;;18.20;12.40;;;;;;;-146.25;85.83;52262.75;2096636;28;32104;-67
2023/04/18 02:23:18;;;;;;;18.17;12.60;;;;;;;-146.25;86.52;52268.84;2097810;28;20033;-67
2023/04/18 02:24:21;;;;;;;17.05;12.18;;;;;;;-146.25;86.34;52287.09;2096203;28;20167;-67
2023/04/18 02:25:26;;;;;;;17.58;11.82;;;;;;;-146.25;86.42;52258.72;2097188;28;20044;-67
2023/04/18 02:26:28;;;;;;;17.85;12.45;;;;;;;-146.25;86.63;52291.16;2096386;28;28102;-66
2023/04/18 02:27:31;;;;;;;17.45;12.50;;;;;;;-146.25;86.39;52250.59;2097050;28;20936;-66
2023/04/18 02:28:33;;;;;;;20.85;12.45;;;;;;;-146.25;87.15;52250.59;2097199;28;22881;-66
2023/04/18 02:29:37;;;;;;;20.35;12.98;;;;;;;-146.25;87.20;52299.25;2096790;28;20041;-68
2023/04/18 02:30:38;;;;;;;15.57;11.52;;;;;;;-146.25;87.22;52291.16;2096270;28;31425;-67
2023/04/18 02:31:40;;;;;;;20.90;12.80;;;;;;;-146.25;86.64;52262.75;2097094;28;31909;-67
2023/04/18 02:32:42;;;;;;;16.85;12.73;;;;;;;-146.25;87.36;52281.00;2096429;28;33823;-67
2023/04/18 02:33:46;;;;;;;18.02;12.93;;;;;;;-146.25;87.72;52287.09;2096243;28;22201;-66
2023/04/18 02:34:50;;;;;;;18.23;12.68;;;;;;;-146.25;87.40;52252.63;2095714;28;36387;-67
2023/04/18 02:35:54;;;;;;;21.65;12.75;;;;;;;-146.25;87.93;52293.19;2096366;28;22954;-66
2023/04/18 02:36:57;;;;;;;19.38;11.88;;;;;;;-146.25;87.87;52283.03;2104840;28;21030;-67
2023/04/18 02:37:58;;;;;;;21.33;13.30;;;;;;;-146.25;87.34;52299.25;2105246;28;23836;-67
2023/04/18 02:39:00;;;;;;;20.90;13.05;;;;;;;-146.25;88.12;52266.81;2096337;28;20041;-65
2023/04/18 02:40:03;;;;;;;17.35;12.70;;;;;;;-146.25;87.73;52246.53;2088420;28;33270;-67
2023/04/18 02:41:05;;;;;;;20.13;12.88;;;;;;;-146.25;87.52;52248.56;2088528;28;20049;-66
2023/04/18 02:42:07;;;;;;;19.65;12.20;;;;;;;-146.25;88.14;52276.97;2096884;28;20048;-67
2023/04/18 02:43:09;;;;;;;17.77;12.60;;;;;;;-146.25;87.86;52287.09;2104310;28;29097;-67
2023/04/18 02:44:11;;;;;;;18.88;12.48;;;;;;;-146.25;87.81;52254.66;2096585;28;20041;-67
2023/04/18 02:45:13;;;;;;;16.58;12.82;;;;;;;-146.25;88.36;52276.97;2088198;28;20191;-67
2023/04/18 02:46:18;;;;;;;17.35;12.45;;;;;;;-146.25;87.83;52307.38;2096932;28;20266;-67
2023/04/18 02:47:22;;;;;;;17.63;12.45;;;;;;;-146.25;88.30;52272.91;2096315;28;20488;-67
2023/04/18 02:48:23;;;;;;;21.58;12.98;;;;;;;-146.25;88.04;52246.53;2088401;28;20076;-67
2023/04/18 02:49:25;;;;;;;18.33;13.23;;;;;;;-146.25;88.74;52276.97;2079804;28;20042;-67
2023/04/18 02:50:29;;;;;;;19.30;13.48;;;;;;;-146.25;88.97;52319.53;2089272;28;20029;-67
2023/04/18 02:51:31;;;;;;;18.73;13.50;;;;;;;-146.25;88.34;52281.00;2095827;28;20045;-67
2023/04/18 02:52:34;;;;;;;17.33;13.23;;;;;;;-146.25;88.49;52307.38;2088656;28;20045;-67
2023/04/18 02:53:37;;;;;;;20.83;12.65;;;;;;;-146.25;88.47;52287.09;2079838;28;20041;-67
2023/04/18 02:54:41;;;;;;;18.73;13.20;;;;;;;-146.25;89.06;52268.84;2080914;28;20157;-67
2023/04/18 02:55:48;;;;;;;19.10;12.80;;;;;;;-146.25;88.79;52295.19;2097050;28;20176;-67
2023/04/18 02:56:53;;;;;;;21.23;13.13;;;;;;;-146.25;88.63;52252.63;2088064;28;20175;-68
2023/04/18 02:58:16;;;;;;;19.00;12.75;;;;;;;-146.25;88.97;52283.03;2085940;28;20907;-67
2023/04/18 02:59:50;;;;;;;21.90;13.00;;;;;;;-146.25;88.94;52246.53;2095841;28;20064;-67
2023/04/18 03:00:54;;;;;;;19.17;12.95;;;;;;;-146.25;89.20;52272.91;2096517;28;20045;-67
2023/04/18 03:02:15;;;;;;;18.00;12.23;;;;;;;-146.25;89.24;52248.56;2095587;28;20045;-67
2023/04/18 03:03:23;;;;;;;18.73;12.90;;;;;;;-146.25;88.80;52242.50;2092535;28;20178;-67
2023/04/18 03:04:52;;;;;;;18.25;12.90;;;;;;;-146.25;89.21;52258.72;2083787;28;20164;-67
2023/04/18 03:05:53;;;;;;;16.80;12.25;;;;;;;-146.25;89.43;52285.06;2092058;28;20175;-67
2023/04/18 03:06:58;;;;;;;20.80;12.75;;;;;;;-146.25;89.44;52291.16;2096499;28;20041;-67
2023/04/18 03:08:00;;;;;;;19.70;12.85;;;;;;;-146.25;89.29;52242.50;2088403;28;21033;-67
2023/04/18 03:09:03;;;;;;;21.60;13.68;;;;;;;-146.25;89.51;52303.31;2088182;28;20890;-68
2023/04/18 03:10:08;;;;;;;20.17;12.98;;;;;;;-146.25;89.47;52283.03;2088407;28;20095;-67
2023/04/18 03:11:11;;;;;;;18.13;12.90;;;;;;;-146.25;89.45;52238.44;2096754;28;20952;-67
2023/04/18 03:12:13;;;;;;;20.55;12.60;;;;;;;-146.25;90.02;52272.91;2088068;28;20103;-67
2023/04/18 03:13:16;;;;;;;20.40;12.25;;;;;;;-146.25;89.17;52270.88;2088162;28;20089;-67
2023/04/18 03:14:17;;;;;;;17.52;13.02;;;;;;;-146.25;89.42;52291.16;2096704;28;20041;-67
2023/04/18 03:15:24;;;;;;;20.98;12.77;;;;;;;-146.25;89.12;52274.94;2096726;28;20045;-67
2023/04/18 03:16:28;;;;;;;18.05;12.63;;;;;;;-146.25;89.71;52299.25;2087954;28;20050;-67
2023/04/18 03:17:30;;;;;;;19.98;13.13;;;;;;;-146.25;89.76;52283.03;2088409;28;20049;-67
2023/04/18 03:18:32;;;;;;;20.20;12.85;;;;;;;-146.25;89.29;52283.03;2096448;28;20090;-67
2023/04/18 03:19:33;;;;;;;19.63;13.40;;;;;;;-146.25;89.79;52264.78;2096331;28;20245;-67
2023/04/18 03:20:42;;;;;;;18.83;12.27;;;;;;;-146.25;89.67;52270.88;2088480;28;20980;-67
2023/04/18 03:21:44;;;;;;;18.27;13.70;;;;;;;-146.25;89.76;52289.13;2088697;28;20045;-67
2023/04/18 03:22:47;;;;;;;20.80;12.85;;;;;;;-146.25;89.52;52274.94;2095770;28;20044;-66
2023/04/18 03:23:53;;;;;;;21.00;13.75;;;;;;;-146.25;89.41;52270.88;2097510;28;20130;-67
2023/04/18 03:24:56;;;;;;;22.40;12.75;;;;;;;-146.25;90.02;52268.84;2096039;28;20153;-67
2023/04/18 03:26:13;;;;;;;20.95;13.05;;;;;;;-146.25;89.31;52254.66;2090257;28;20187;-67
2023/04/18 03:27:16;;;;;;;19.17;13.52;;;;;;;-146.25;90.02;52242.50;2088408;28;20893;-67
2023/04/18 03:28:19;;;;;;;18.50;13.13;;;;;;;-146.25;89.51;52323.59;2096761;28;20029;-67
2023/04/18 03:29:21;;;;;;;21.33;13.63;;;;;;;-146.25;89.53;52283.03;2095555;28;22908;-66
2023/04/18 03:30:24;;;;;;;20.70;13.07;;;;;;;-146.25;89.75;52295.19;2088500;28;20046;-67
2023/04/18 03:31:28;;;;;;;17.30;13.02;;;;;;;-146.25;89.56;52311.44;2096343;28;20461;-66
2023/04/18 03:32:33;;;;;;;22.85;13.77;;;;;;;-146.25;89.53;52272.91;2104495;28;20083;-67
2023/04/18 03:33:35;;;;;;;18.25;13.45;;;;;;;-146.25;90.25;52311.44;2096003;28;20798;-67
2023/04/18 03:34:43;;;;;;;20.23;13.52;;;;;;;-146.25;89.41;52297.22;2097213;28;20987;-67
2023/04/18 03:35:47;;;;;;;19.67;12.98;;;;;;;-146.25;89.53;52305.34;2096407;28;20044;-67
2023/04/18 03:36:49;;;;;;;19.98;12.90;;;;;;;-146.25;90.19;52274.94;2096419;28;20881;-66
2023/04/18 03:37:51;;;;;;;19.45;13.15;;;;;;;-146.25;90.10;52291.16;2088044;28;20040;-66
2023/04/18 03:39:02;;;;;;;20.77;12.80;;;;;;;-146.25;90.28;52307.38;2097402;28;20045;-67
2023/04/18 03:40:05;;;;;;;16.40;12.55;;;;;;;-146.25;89.89;52270.88;2104241;28;27875;-67
2023/04/18 03:41:06;;;;;;;19.33;12.45;;;;;;;-146.25;89.73;52291.16;2097113;28;20041;-67
2023/04/18 03:42:10;;;;;;;18.85;12.77;;;;;;;-146.25;90.02;52260.72;2088066;28;20897;-67
2023/04/18 03:43:13;;;;;;;18.55;13.07;;;;;;;-146.25;89.94;52293.19;2088851;28;20072;-67
2023/04/18 03:44:17;;;;;;;19.25;13.18;;;;;;;-146.25;90.13;52289.13;2096342;28;20887;-67
2023/04/18 03:45:19;;;;;;;18.05;13.63;;;;;;;-146.25;89.82;52281.00;2087968;28;20152;-67
2023/04/18 03:46:23;;;;;;;19.73;12.95;;;;;;;-146.25;89.39;52313.44;2096152;28;20053;-67
2023/04/18 03:47:30;;;;;;;23.27;13.40;;;;;;;-146.25;89.65;52311.44;2096295;28;20041;-67
2023/04/18 03:48:35;;;;;;;20.67;13.48;;;;;;;-146.25;89.74;52309.41;2080284;28;20817;-67
2023/04/18 03:49:42;;;;;;;20.15;12.63;;;;;;;-146.25;89.28;52283.03;2082260;28;20883;-66
2023/04/18 03:50:43;;;;;;;18.52;13.00;;;;;;;-146.25;89.16;52283.03;2096467;28;20045;-67
2023/04/18 03:52:00;;;;;;;17.92;12.60;;;;;;;-146.25;88.87;52291.16;2096838;28;20036;-68
2023/04/18 03:53:02;;;;;;;20.67;13.77;;;;;;;-146.25;88.90;52242.50;2073305;28;28467;-72
2023/04/18 03:54:07;;;;;;;19.23;13.35;;;;;;;-146.25;89.25;52256.69;2079555;28;20104;-73
2023/04/18 03:55:10;;;;;;;18.45;13.15;;;;;;;-146.25;89.04;52240.47;2079912;28;20038;-73
2023/04/18 03:56:12;;;;;;;19.15;13.60;;;;;;;-146.25;88.97;52323.59;2079148;28;20045;-72
2023/04/18 03:57:39;;;;;;;20.42;13.63;;;;;;;-146.25;88.49;52287.09;2069521;28;20054;-73
2023/04/18 03:58:45;;;;;;;19.52;13.05;;;;;;;-146.25;88.51;52262.75;2067466;28;20039;-73
2023/04/18 03:59:47;;;;;;;19.83;12.65;;;;;;;-146.25;88.92;52281.00;2071603;28;20050;-73
2023/04/18 04:00:52;;;;;;;20.52;13.50;;;;;;;-146.25;89.17;52289.13;2072155;28;20034;-72
2023/04/18 04:01:54;;;;;;;22.10;13.57;;;;;;;-146.25;88.35;52264.78;2072060;28;20081;-73
2023/04/18 04:02:56;;;;;;;21.55;13.80;;;;;;;-146.25;88.98;52262.75;2072159;28;20050;-73
2023/04/18 04:04:00;;;;;;;18.33;13.63;;;;;;;-146.25;88.46;52299.25;2071685;28;29305;-73
2023/04/18 04:05:04;;;;;;;22.65;13.38;;;;;;;-146.25;89.09;52307.38;2071080;28;20042;-73
2023/04/18 04:06:07;;;;;;;20.85;13.60;;;;;;;-146.25;88.89;52250.59;2063595;28;20050;-73
2023/04/18 04:07:09;;;;;;;19.73;12.80;;;;;;;-146.25;88.99;52317.50;2071338;28;20039;-72
2023/04/18 04:08:13;;;;;;;22.00;13.93;;;;;;;-146.25;88.90;52274.94;2071394;28;20098;-73
2023/04/18 04:09:15;;;;;;;21.00;13.65;;;;;;;-146.25;88.79;52252.63;2071784;28;20947;-73
2023/04/18 04:10:17;;;;;;;22.17;13.38;;;;;;;-146.25;88.40;52268.84;2070678;28;20043;-73
2023/04/18 04:11:19;;;;;;;20.02;13.45;;;;;;;-146.25;89.13;52291.16;2071846;28;20533;-72
2023/04/18 04:12:21;;;;;;;21.92;13.73;;;;;;;-146.25;88.40;52303.31;2079803;28;20132;-73
2023/04/18 04:13:23;;;;;;;23.48;13.93;;;;;;;-146.25;88.26;52333.72;2071452;28;20034;-72
2023/04/18 04:14:25;;;;;;;19.13;13.68;;;;;;;-146.25;88.95;52299.25;2071434;28;20038;-73
2023/04/18 04:15:27;;;;;;;21.95;14.52;;;;;;;-146.25;88.83;52272.91;2071516;28;20078;-72
2023/04/18 04:16:35;;;;;;;20.13;13.50;;;;;;;-146.25;89.00;52262.75;2071204;28;20035;-73
2023/04/18 04:17:38;;;;;;;18.48;13.80;;;;;;;-146.25;88.91;52293.19;2063052;28;20039;-73
2023/04/18 04:18:39;;;;;;;19.33;13.80;;;;;;;-146.25;88.25;52307.38;2071017;28;20862;-73
2023/04/18 04:19:43;;;;;;;20.15;13.95;;;;;;;-146.25;89.09;52303.31;2079596;28;21013;-73
2023/04/18 04:20:50;;;;;;;20.77;13.80;;;;;;;-146.25;88.47;52291.16;2071344;28;20057;-73
2023/04/18 04:22:07;;;;;;;17.70;13.00;;;;;;;-146.25;88.54;52303.31;2073389;28;20094;-73
2023/04/18 04:23:10;;;;;;;19.30;13.57;;;;;;;-146.25;89.06;52260.72;2072251;28;20184;-73
2023/04/18 04:24:13;;;;;;;20.35;13.98;;;;;;;-146.25;89.10;52274.94;2064623;28;20039;-73
2023/04/18 04:25:19;;;;;;;22.20;14.00;;;;;;;-146.25;88.78;52238.44;2063542;28;20054;-73
2023/04/18 04:26:22;;;;;;;22.50;14.23;;;;;;;-146.25;89.12;52283.03;2079373;28;20049;-73
2023/04/18 04:27:35;;;;;;;20.80;13.80;;;;;;;-146.25;89.28;52351.97;2069522;28;20185;-73
2023/04/18 04:28:41;;;;;;;19.13;13.70;;;;;;;-146.25;88.66;52258.72;2063669;28;20101;-73
2023/04/18 04:29:43;;;;;;;24.95;14.32;;;;;;;-146.25;88.84;52283.03;2063014;28;20070;-73
2023/04/18 04:30:46;;;;;;;18.98;13.00;;;;;;;-146.25;88.68;52274.94;2063110;28;20059;-73
2023/04/18 04:31:48;;;;;;;20.48;13.93;;;;;;;-146.25;89.23;52323.59;2065488;28;20042;-73
2023/04/18 04:33:06;;;;;;;17.35;13.10;;;;;;;-146.25;88.69;52285.06;2072952;28;20039;-73
2023/04/18 04:34:08;;;;;;;17.13;12.75;;;;;;;-146.25;88.90;52303.31;2078632;28;20116;-72
2023/04/18 04:35:10;;;;;;;21.65;13.60;;;;;;;-146.25;88.38;52295.19;2071117;28;25454;-73
2023/04/18 04:36:15;;;;;;;19.30;13.68;;;;;;;-146.25;88.38;52270.88;2072183;28;20050;-72
2023/04/18 04:37:21;;;;;;;19.75;13.30;;;;;;;-146.25;88.08;52285.06;2071445;28;20038;-73
2023/04/18 04:38:46;;;;;;;24.45;13.85;;;;;;;-146.25;88.32;52276.97;2063300;28;20153;-73
2023/04/18 04:39:47;;;;;;;19.25;12.88;;;;;;;-146.25;87.98;52281.00;2079250;28;20494;-73
2023/04/18 04:41:12;;;;;;;19.30;13.48;;;;;;;-146.25;86.93;52266.81;2073464;28;20440;-73
2023/04/18 04:42:18;;;;;;;16.45;12.45;;;;;;;-146.25;86.83;52295.19;2079204;28;20061;-73
2023/04/18 04:43:28;;;;;;;19.65;13.57;;;;;;;-146.25;86.88;52297.22;2077648;28;20058;-73
2023/04/18 04:44:34;;;;;;;17.20;12.88;;;;;;;-146.25;86.46;52287.09;2071043;28;20832;-72
2023/04/18 04:45:37;;;;;;;18.90;12.65;;;;;;;-146.25;86.29;52303.31;2071372;28;20046;-73
2023/04/18 04:46:40;;;;;;;18.92;13.02;;;;;;;-146.25;86.34;52258.72;2079078;28;26988;-72
2023/04/18 04:47:48;;;;;;;20.67;13.02;;;;;;;-146.25;86.18;52291.16;2062964;28;20181;-73